createdAt,value
2023-04-23T00:00:41.645Z,10.44
2023-04-23T00:03:12.789Z,10.49
2023-04-23T00:05:39.619Z,10.42
2023-04-23T00:08:06.352Z,10.43
2023-04-23T00:10:33.072Z,10.44
2023-04-23T00:12:59.858Z,10.40
2023-04-23T00:15:27.005Z,10.43
2023-04-23T00:17:54.126Z,10.26
2023-04-23T00:20:20.730Z,10.40
2023-04-23T00:22:47.154Z,10.34
2023-04-23T00:25:13.593Z,10.43
2023-04-23T00:27:40.232Z,10.47
2023-04-23T00:30:07.172Z,10.34
2023-04-23T00:32:33.722Z,10.40
2023-04-23T00:35:01.032Z,10.47
2023-04-23T00:37:27.525Z,10.49
2023-04-23T00:39:53.958Z,10.52
2023-04-23T00:42:21.497Z,10.50
2023-04-23T00:44:50.577Z,10.52
2023-04-23T00:47:17.934Z,10.45
2023-04-23T00:49:45.481Z,10.40
2023-04-23T00:52:12.044Z,10.56
2023-04-23T00:54:38.729Z,10.44
2023-04-23T00:57:05.432Z,10.55
2023-04-23T00:59:32.175Z,10.46
2023-04-23T01:01:59.225Z,10.48
2023-04-23T01:04:29.494Z,10.43
2023-04-23T01:06:56.898Z,10.35
2023-04-23T01:09:23.867Z,10.40
2023-04-23T01:11:51.520Z,10.41
2023-04-23T01:14:18.015Z,10.33
2023-04-23T01:16:44.663Z,10.41
2023-04-23T01:19:11.538Z,10.43
2023-04-23T01:21:41.558Z,10.31
2023-04-23T01:24:09.663Z,10.24
2023-04-23T01:26:36.279Z,10.23
2023-04-23T01:29:03.568Z,10.12
2023-04-23T01:31:30.900Z,10.16
2023-04-23T01:33:58.679Z,10.03
2023-04-23T01:36:25.403Z,10.20
2023-04-23T01:38:52.332Z,9.97
2023-04-23T01:41:19.953Z,9.92
2023-04-23T01:43:46.524Z,10.01
2023-04-23T01:46:13.132Z,9.99
2023-04-23T01:48:40.621Z,10.16
2023-04-23T01:51:07.548Z,10.01
2023-04-23T01:53:34.526Z,10.06
2023-04-23T01:56:02.518Z,10.11
2023-04-23T01:58:29.069Z,10.09
2023-04-23T02:00:56.181Z,10.17
2023-04-23T02:03:23.305Z,10.21
2023-04-23T02:05:50.785Z,10.22
2023-04-23T02:08:17.243Z,10.18
2023-04-23T02:10:43.986Z,10.21
2023-04-23T02:13:10.997Z,10.08
2023-04-23T02:15:38.225Z,10.03
2023-04-23T02:18:04.895Z,9.88
2023-04-23T02:20:31.473Z,9.72
2023-04-23T02:22:58.090Z,9.75
2023-04-23T02:25:24.579Z,9.92
2023-04-23T02:27:51.121Z,10.03
2023-04-23T02:30:17.748Z,9.88
2023-04-23T02:32:44.368Z,9.78
2023-04-23T02:35:10.923Z,9.84
2023-04-23T02:37:37.697Z,9.82
2023-04-23T02:40:08.098Z,9.78
2023-04-23T02:42:34.862Z,9.69
2023-04-23T02:45:01.379Z,9.86
2023-04-23T02:47:27.899Z,9.81
2023-04-23T02:49:54.479Z,9.65
2023-04-23T02:52:21.357Z,9.85
2023-04-23T02:54:48.269Z,9.81
2023-04-23T02:57:16.401Z,9.67
2023-04-23T02:59:43.521Z,9.74
2023-04-23T03:02:10.983Z,9.86
2023-04-23T03:04:38.092Z,9.89
2023-04-23T03:07:04.581Z,9.89
2023-04-23T03:09:32.301Z,9.80
2023-04-23T03:11:58.768Z,9.78
2023-04-23T03:14:25.481Z,9.63
2023-04-23T03:16:52.203Z,9.71
2023-04-23T03:19:18.866Z,9.79
2023-04-23T03:21:45.307Z,9.57
2023-04-23T03:24:15.015Z,9.51
2023-04-23T03:26:41.582Z,9.50
2023-04-23T03:29:08.759Z,9.42
2023-04-23T03:31:35.194Z,9.28
2023-04-23T03:34:02.008Z,9.14
2023-04-23T03:36:32.685Z,9.26
2023-04-23T03:39:00.661Z,9.45
2023-04-23T03:41:33.416Z,9.39
2023-04-23T03:44:00.574Z,9.28
2023-04-23T03:46:41.698Z,9.41
2023-04-23T03:49:08.757Z,9.58
2023-04-23T03:51:35.386Z,9.42
2023-04-23T03:54:01.840Z,9.35
2023-04-23T03:56:31.019Z,9.36
2023-04-23T03:59:17.742Z,9.40
2023-04-23T04:01:45.481Z,9.49
2023-04-23T04:04:12.171Z,9.64
2023-04-23T04:06:38.786Z,9.58
2023-04-23T04:09:07.922Z,9.60
2023-04-23T04:11:34.897Z,9.55
2023-04-23T04:14:02.492Z,9.59
2023-04-23T04:16:29.145Z,9.55
2023-04-23T04:18:56.718Z,9.59
2023-04-23T04:21:23.259Z,9.59
2023-04-23T04:23:49.770Z,9.71
2023-04-23T04:26:16.281Z,9.61
2023-04-23T04:28:42.750Z,9.70
2023-04-23T04:31:10.366Z,9.68
2023-04-23T04:33:39.723Z,9.71
2023-04-23T04:36:08.635Z,9.64
2023-04-23T04:38:37.820Z,9.59
2023-04-23T04:41:04.926Z,9.71
2023-04-23T04:43:32.489Z,9.47
2023-04-23T04:46:01.566Z,9.41
2023-04-23T04:48:28.002Z,9.11
2023-04-23T04:50:54.482Z,9.10
2023-04-23T04:53:20.964Z,8.95
2023-04-23T04:55:47.448Z,9.08
2023-04-23T04:58:14.320Z,8.97
2023-04-23T05:00:40.824Z,8.93
2023-04-23T05:03:07.781Z,9.05
2023-04-23T05:05:34.552Z,9.21
2023-04-23T05:08:02.233Z,9.38
2023-04-23T05:10:29.777Z,9.53
2023-04-23T05:13:00.665Z,9.93
2023-04-23T05:15:27.199Z,10.15
2023-04-23T05:17:54.152Z,10.29
2023-04-23T05:20:21.567Z,10.47
2023-04-23T05:22:48.545Z,10.25
2023-04-23T05:25:15.099Z,10.43
2023-04-23T05:27:41.698Z,10.73
2023-04-23T05:30:10.272Z,11.08
2023-04-23T05:32:37.185Z,11.51
2023-04-23T05:35:04.109Z,11.35
2023-04-23T05:37:30.773Z,12.12
2023-04-23T05:39:58.206Z,13.70
2023-04-23T05:42:24.897Z,14.72
2023-04-23T05:44:51.603Z,13.37
2023-04-23T05:47:18.056Z,12.19
2023-04-23T05:49:44.561Z,11.88
2023-04-23T05:52:11.714Z,11.49
2023-04-23T05:54:39.218Z,11.39
2023-04-23T05:57:05.940Z,11.24
2023-04-23T05:59:32.575Z,11.14
2023-04-23T06:01:59.193Z,11.04
2023-04-23T06:04:25.921Z,10.97
2023-04-23T06:06:52.562Z,10.97
2023-04-23T06:09:19.011Z,11.08
2023-04-23T06:11:45.500Z,10.78
2023-04-23T06:14:11.999Z,10.98
2023-04-23T06:16:38.575Z,10.91
2023-04-23T06:19:05.352Z,11.07
2023-04-23T06:21:32.454Z,11.11
2023-04-23T06:23:58.934Z,11.32
2023-04-23T06:26:25.545Z,11.11
2023-04-23T06:28:54.901Z,11.22
2023-04-23T06:31:28.595Z,11.05
2023-04-23T06:33:55.385Z,10.89
2023-04-23T06:36:21.876Z,11.14
2023-04-23T06:38:48.328Z,11.19
2023-04-23T06:41:15.387Z,11.19
2023-04-23T06:43:42.634Z,11.13
2023-04-23T06:46:28.013Z,11.18
2023-04-23T06:48:54.562Z,11.62
2023-04-23T06:51:21.201Z,11.83
2023-04-23T06:53:47.744Z,12.06
2023-04-23T06:56:14.217Z,12.03
2023-04-23T06:58:41.167Z,11.86
2023-04-23T07:01:16.053Z,11.66
2023-04-23T07:03:45.187Z,11.81
2023-04-23T07:06:12.039Z,11.63
2023-04-23T07:08:39.684Z,11.75
2023-04-23T07:11:06.190Z,11.65
2023-04-23T07:13:32.684Z,11.84
2023-04-23T07:15:59.118Z,11.88
2023-04-23T07:18:25.689Z,11.90
2023-04-23T07:20:52.236Z,12.09
2023-04-23T07:23:18.739Z,11.90
2023-04-23T07:25:45.204Z,11.86
2023-04-23T07:28:11.693Z,11.84
2023-04-23T07:30:38.234Z,11.73
2023-04-23T07:33:04.809Z,11.84
2023-04-23T07:35:31.328Z,12.03
2023-04-23T07:37:58.214Z,11.79
2023-04-23T07:40:25.522Z,11.85
2023-04-23T07:42:52.640Z,12.06
2023-04-23T07:45:19.607Z,12.42
2023-04-23T07:47:46.594Z,12.58
2023-04-23T07:50:13.944Z,12.64
2023-04-23T07:52:40.740Z,12.71
2023-04-23T07:55:08.042Z,13.24
2023-04-23T07:57:34.498Z,13.25
2023-04-23T08:00:01.402Z,13.18
2023-04-23T08:02:28.563Z,12.79
2023-04-23T08:04:55.455Z,12.61
2023-04-23T08:07:22.054Z,13.06
2023-04-23T08:09:49.025Z,13.19
2023-04-23T08:12:17.207Z,13.26
2023-04-23T08:14:44.327Z,13.17
2023-04-23T08:17:14.407Z,13.62
2023-04-23T08:19:41.241Z,14.25
2023-04-23T08:22:08.042Z,14.77
2023-04-23T08:24:34.519Z,14.70
2023-04-23T08:27:01.719Z,14.66
2023-04-23T08:29:28.142Z,15.03
2023-04-23T08:31:55.059Z,15.36
2023-04-23T08:34:21.547Z,14.84
2023-04-23T08:36:49.387Z,15.91
2023-04-23T08:39:15.898Z,16.30
2023-04-23T08:41:44.156Z,16.22
2023-04-23T08:44:18.404Z,17.21
2023-04-23T08:46:45.574Z,17.01
2023-04-23T08:49:16.488Z,16.59
2023-04-23T08:52:16.814Z,16.99
2023-04-23T08:54:47.965Z,17.40
2023-04-23T08:57:16.842Z,17.44
2023-04-23T08:59:44.417Z,16.86
2023-04-23T09:02:11.211Z,16.57
2023-04-23T09:04:38.251Z,16.20
2023-04-23T09:07:04.973Z,15.97
2023-04-23T09:09:31.497Z,15.41
2023-04-23T09:11:58.458Z,15.05
2023-04-23T09:14:25.624Z,14.64
2023-04-23T09:16:52.928Z,14.90
2023-04-23T09:19:19.498Z,15.29
2023-04-23T09:21:46.723Z,15.88
2023-04-23T09:24:14.795Z,16.52
2023-04-23T09:26:46.707Z,16.62
2023-04-23T09:29:21.595Z,16.64
2023-04-23T09:31:52.503Z,16.73
2023-04-23T09:34:20.789Z,16.42
2023-04-23T09:36:50.706Z,16.86
2023-04-23T09:39:19.697Z,17.39
2023-04-23T09:41:49.199Z,18.18
2023-04-23T09:44:22.280Z,18.58
2023-04-23T09:46:48.876Z,18.76
2023-04-23T09:49:15.704Z,18.87
2023-04-23T09:51:43.325Z,18.20
2023-04-23T09:54:21.676Z,18.87
2023-04-23T09:56:53.863Z,18.87
2023-04-23T09:59:46.277Z,19.13
2023-04-23T10:02:12.487Z,18.25
2023-04-23T10:04:40.034Z,18.49
2023-04-23T10:07:18.946Z,18.25
2023-04-23T10:09:47.137Z,18.30
2023-04-23T10:14:46.029Z,18.59
2023-04-23T10:17:12.802Z,18.23
2023-04-23T10:19:41.579Z,18.43
2023-04-23T10:22:19.472Z,18.27
2023-04-23T10:24:51.938Z,17.47
2023-04-23T10:29:51.420Z,16.54
2023-04-23T10:32:20.272Z,17.02
2023-04-23T10:34:48.047Z,17.19
2023-04-23T10:37:15.890Z,16.70
2023-04-23T10:39:44.724Z,16.74
2023-04-23T10:42:13.488Z,16.54
2023-04-23T10:47:14.940Z,17.20
2023-04-23T10:49:42.755Z,17.77
2023-04-23T10:52:21.130Z,18.53
2023-04-23T10:54:50.552Z,18.67
2023-04-23T10:57:17.066Z,18.65
2023-04-23T10:59:56.168Z,18.93
2023-04-23T11:02:26.232Z,18.68
2023-04-23T11:04:57.765Z,18.16
2023-04-23T11:07:32.330Z,17.98
2023-04-23T11:10:00.267Z,17.76
2023-04-23T11:12:32.739Z,17.23
2023-04-23T11:14:59.767Z,17.24
2023-04-23T11:17:32.312Z,18.03
2023-04-23T11:20:07.029Z,19.77
2023-04-23T11:22:38.769Z,19.27
2023-04-23T11:25:10.027Z,20.25
2023-04-23T11:27:39.648Z,20.21
2023-04-23T11:30:14.335Z,20.56
2023-04-23T11:32:51.713Z,21.32
2023-04-23T11:35:21.616Z,19.90
2023-04-23T11:37:49.176Z,20.83
2023-04-23T11:40:20.403Z,22.57
2023-04-23T11:42:51.879Z,23.21
2023-04-23T11:45:22.516Z,21.50
2023-04-23T11:47:53.523Z,20.22
2023-04-23T11:50:21.683Z,20.02
2023-04-23T11:52:48.469Z,21.80
2023-04-23T11:55:16.340Z,20.70
2023-04-23T11:59:32.743Z,23.81
2023-04-23T12:02:00.351Z,23.42
2023-04-23T12:04:29.004Z,22.70
2023-04-23T12:06:57.419Z,22.88
2023-04-23T12:09:26.321Z,23.05
2023-04-23T12:11:52.937Z,22.31
2023-04-23T12:14:23.999Z,21.77
2023-04-23T12:16:52.363Z,20.31
2023-04-23T12:19:21.310Z,20.12
2023-04-23T12:21:55.799Z,21.29
2023-04-23T12:24:28.153Z,20.77
2023-04-23T12:26:58.524Z,20.32
2023-04-23T12:29:26.077Z,19.29
2023-04-23T12:31:53.703Z,20.45
2023-04-23T12:34:21.378Z,20.82
2023-04-23T12:36:50.518Z,20.67
2023-04-23T12:39:20.479Z,20.46
2023-04-23T12:41:47.098Z,19.62
2023-04-23T12:44:14.917Z,19.96
2023-04-23T12:46:41.436Z,20.04
2023-04-23T12:49:08.039Z,20.16
2023-04-23T12:51:34.625Z,20.63
2023-04-23T12:54:01.145Z,21.34
2023-04-23T12:56:27.666Z,21.10
2023-04-23T12:58:54.111Z,19.71
2023-04-23T13:01:20.934Z,19.51
2023-04-23T13:03:47.885Z,19.27
2023-04-23T13:06:15.679Z,19.46
2023-04-23T13:08:42.142Z,19.88
2023-04-23T13:11:08.720Z,19.95
2023-04-23T13:13:35.625Z,19.88
2023-04-23T13:16:02.124Z,19.79
2023-04-23T13:18:28.669Z,19.66
2023-04-23T13:20:55.125Z,19.99
2023-04-23T13:23:21.732Z,19.95
2023-04-23T13:25:48.256Z,20.44
2023-04-23T13:28:15.012Z,20.12
2023-04-23T13:30:41.535Z,19.86
2023-04-23T13:33:08.194Z,20.39
2023-04-23T13:35:37.698Z,20.76
2023-04-23T13:38:04.891Z,19.93
2023-04-23T13:40:31.445Z,19.71
2023-04-23T13:42:58.141Z,19.26
2023-04-23T13:45:26.102Z,18.66
2023-04-23T13:47:52.705Z,18.21
2023-04-23T13:50:19.459Z,18.43
2023-04-23T13:52:46.029Z,18.80
2023-04-23T13:55:12.653Z,18.44
2023-04-23T13:57:40.037Z,18.31
2023-04-23T14:00:07.461Z,18.28
2023-04-23T14:02:35.018Z,18.51
2023-04-23T14:05:03.786Z,17.89
2023-04-23T14:07:30.308Z,17.78
2023-04-23T14:09:56.843Z,17.73
2023-04-23T14:12:24.119Z,17.52
2023-04-23T14:14:50.738Z,17.41
2023-04-23T14:17:17.305Z,17.45
2023-04-23T14:19:44.179Z,17.38
2023-04-23T14:22:10.877Z,17.11
2023-04-23T14:24:45.660Z,17.09
2023-04-23T14:27:15.181Z,17.22
2023-04-23T14:29:46.657Z,16.93
2023-04-23T14:32:13.669Z,16.91
2023-04-23T14:34:40.283Z,16.83
2023-04-23T14:37:07.056Z,16.70
2023-04-23T14:39:34.331Z,16.83
2023-04-23T14:42:01.196Z,16.40
2023-04-23T14:44:27.704Z,16.66
2023-04-23T14:46:54.383Z,16.97
2023-04-23T14:49:22.149Z,16.92
2023-04-23T14:51:55.747Z,16.75
2023-04-23T14:54:22.809Z,16.74
2023-04-23T14:56:50.830Z,16.43
2023-04-23T14:59:17.399Z,16.14
2023-04-23T15:01:44.062Z,16.07
2023-04-23T15:04:15.053Z,15.70
2023-04-23T15:06:44.206Z,15.34
2023-04-23T15:09:10.708Z,13.29
2023-04-23T15:11:41.227Z,12.58
2023-04-23T15:14:19.496Z,12.17
2023-04-23T15:16:49.712Z,11.99
2023-04-23T15:19:18.101Z,11.81
2023-04-23T15:21:45.635Z,11.99
2023-04-23T15:24:14.630Z,11.84
2023-04-23T15:26:45.934Z,11.84
2023-04-23T15:29:13.566Z,11.98
2023-04-23T15:31:40.695Z,12.03
2023-04-23T15:34:08.914Z,11.79
2023-04-23T15:36:37.222Z,11.86
2023-04-23T15:39:03.881Z,11.92
2023-04-23T15:41:30.481Z,12.01
2023-04-23T15:43:57.020Z,12.19
2023-04-23T15:46:24.807Z,12.12
2023-04-23T15:48:51.299Z,12.20
2023-04-23T15:51:18.364Z,12.17
2023-04-23T15:53:44.909Z,12.20
2023-04-23T15:56:13.736Z,12.23
2023-04-23T15:58:40.251Z,12.09
2023-04-23T16:01:11.200Z,12.09
2023-04-23T16:03:38.166Z,12.10
2023-04-23T16:06:07.275Z,12.10
2023-04-23T16:08:34.924Z,12.22
2023-04-23T16:11:01.478Z,12.07
2023-04-23T16:13:28.916Z,12.22
2023-04-23T16:15:55.556Z,12.47
2023-04-23T16:18:25.006Z,12.33
2023-04-23T16:20:51.505Z,12.22
2023-04-23T16:23:18.185Z,12.19
2023-04-23T16:25:55.032Z,12.11
2023-04-23T16:28:22.531Z,11.81
2023-04-23T16:30:49.203Z,11.72
2023-04-23T16:33:23.366Z,11.63
2023-04-23T16:35:49.811Z,11.79
2023-04-23T16:38:17.446Z,11.60
2023-04-23T16:40:47.065Z,11.77
2023-04-23T16:43:22.397Z,11.80
2023-04-23T16:45:48.878Z,11.79
2023-04-23T16:48:16.700Z,11.77
2023-04-23T16:50:44.241Z,11.80
2023-04-23T16:53:10.780Z,11.88
2023-04-23T16:55:38.132Z,12.01
2023-04-23T16:58:11.149Z,12.00
2023-04-23T17:00:38.214Z,12.06
2023-04-23T17:03:04.925Z,12.20
2023-04-23T17:05:34.070Z,12.38
2023-04-23T17:08:00.685Z,12.37
2023-04-23T17:10:27.259Z,12.35
2023-04-23T17:12:57.095Z,12.44
2023-04-23T17:15:26.524Z,12.42
2023-04-23T17:17:56.217Z,12.49
2023-04-23T17:20:24.176Z,12.47
2023-04-23T17:22:53.073Z,12.26
2023-04-23T17:25:22.094Z,12.12
2023-04-23T17:27:48.544Z,12.26
2023-04-23T17:30:15.676Z,12.30
2023-04-23T17:32:42.290Z,12.10
2023-04-23T17:35:10.851Z,12.15
2023-04-23T17:37:37.800Z,12.11
2023-04-23T17:40:05.781Z,12.11
2023-04-23T17:42:32.238Z,12.10
2023-04-23T17:44:58.917Z,12.04
2023-04-23T17:47:27.705Z,12.03
2023-04-23T17:49:54.959Z,11.98
2023-04-23T17:52:24.222Z,12.08
2023-04-23T17:54:50.976Z,12.04
2023-04-23T17:57:18.125Z,11.98
2023-04-23T17:59:47.206Z,11.95
2023-04-23T18:02:13.953Z,12.06
2023-04-23T18:04:41.732Z,12.06
2023-04-23T18:07:09.083Z,12.02
2023-04-23T18:09:36.147Z,12.01
2023-04-23T18:12:03.881Z,11.93
2023-04-23T18:14:30.726Z,11.95
2023-04-23T18:16:57.269Z,11.96
2023-04-23T18:19:24.124Z,11.94
2023-04-23T18:21:50.919Z,11.95
2023-04-23T18:24:18.665Z,11.84
2023-04-23T18:26:45.186Z,11.77
2023-04-23T18:29:12.390Z,11.70
2023-04-23T18:31:39.122Z,11.67
2023-04-23T18:34:10.005Z,11.58
2023-04-23T18:36:38.070Z,11.51
2023-04-23T18:39:05.605Z,11.49
2023-04-23T18:41:32.546Z,11.46
2023-04-23T18:44:00.438Z,11.43
2023-04-23T18:46:27.831Z,11.44
2023-04-23T18:49:04.499Z,11.49
2023-04-23T18:51:38.504Z,11.44
2023-04-23T18:54:05.835Z,11.38
2023-04-23T18:56:32.375Z,11.23
2023-04-23T18:58:58.835Z,11.27
2023-04-23T19:01:27.658Z,11.25
2023-04-23T19:03:54.552Z,11.19
2023-04-23T19:06:21.177Z,11.16
2023-04-23T19:08:47.770Z,11.08
2023-04-23T19:11:15.238Z,11.15
2023-04-23T19:13:41.749Z,11.27
2023-04-23T19:16:16.127Z,11.21
2023-04-23T19:18:42.650Z,11.12
2023-04-23T19:21:12.250Z,10.99
2023-04-23T19:23:41.276Z,11.07
2023-04-23T19:26:12.981Z,11.08
2023-04-23T19:28:40.139Z,10.98
2023-04-23T19:31:06.774Z,10.90
2023-04-23T19:33:33.471Z,10.94
2023-04-23T19:35:59.953Z,10.86
2023-04-23T19:38:26.696Z,10.83
2023-04-23T19:40:59.416Z,10.85
2023-04-23T19:43:25.917Z,10.76
2023-04-23T19:45:53.342Z,10.72
2023-04-23T19:48:19.858Z,10.62
2023-04-23T19:50:48.070Z,10.79
2023-04-23T19:53:17.610Z,10.78
2023-04-23T19:55:44.246Z,10.65
2023-04-23T19:58:10.959Z,10.64
2023-04-23T20:00:41.922Z,10.61
2023-04-23T20:03:08.708Z,10.51
2023-04-23T20:05:35.479Z,10.63
2023-04-23T20:08:04.356Z,10.57
2023-04-23T20:10:33.773Z,10.62
2023-04-23T20:13:00.466Z,10.53
2023-04-23T20:15:29.085Z,10.43
2023-04-23T20:17:57.859Z,10.40
2023-04-23T20:20:29.714Z,10.33
2023-04-23T20:23:00.389Z,10.35
2023-04-23T20:25:27.016Z,10.37
2023-04-23T20:27:56.421Z,10.33
2023-04-23T20:30:22.945Z,10.22
2023-04-23T20:32:49.452Z,10.22
2023-04-23T20:35:16.081Z,10.16
2023-04-23T20:37:42.743Z,10.06
2023-04-23T20:40:10.687Z,9.99
2023-04-23T20:42:39.172Z,10.14
2023-04-23T20:45:09.493Z,10.20
2023-04-23T20:47:36.161Z,10.27
2023-04-23T20:50:02.797Z,10.15
2023-04-23T20:52:29.355Z,10.02
2023-04-23T20:54:56.065Z,10.06
2023-04-23T20:57:25.767Z,10.21
2023-04-23T20:59:52.350Z,10.00
2023-04-23T21:02:18.961Z,9.82
2023-04-23T21:04:45.565Z,9.80
2023-04-23T21:07:12.108Z,9.77
2023-04-23T21:09:39.040Z,9.95
2023-04-23T21:12:05.812Z,9.91
2023-04-23T21:14:33.011Z,9.72
2023-04-23T21:16:59.518Z,9.66
2023-04-23T21:19:26.269Z,9.61
2023-04-23T21:21:52.769Z,9.49
2023-04-23T21:24:19.266Z,9.59
2023-04-23T21:26:46.397Z,9.63
2023-04-23T21:29:15.322Z,9.55
2023-04-23T21:31:52.102Z,9.46
2023-04-23T21:34:22.046Z,9.42
2023-04-23T21:36:49.166Z,9.34
2023-04-23T21:39:16.419Z,9.29
2023-04-23T21:41:44.745Z,9.27
2023-04-23T21:44:11.364Z,9.28
2023-04-23T21:46:37.946Z,9.29
2023-04-23T21:49:07.888Z,9.34
2023-04-23T21:51:36.913Z,9.22
2023-04-23T21:54:05.733Z,9.21
2023-04-23T21:56:32.920Z,9.16
2023-04-23T21:58:59.413Z,9.15
2023-04-23T22:01:25.944Z,9.20
2023-04-23T22:03:52.796Z,9.23
2023-04-23T22:06:23.126Z,9.31
2023-04-23T22:08:49.674Z,9.21
2023-04-23T22:11:19.104Z,9.26
2023-04-23T22:13:45.811Z,9.19
2023-04-23T22:16:26.993Z,9.11
2023-04-23T22:18:56.568Z,9.09
2023-04-23T22:21:23.113Z,9.02
2023-04-23T22:23:49.657Z,9.11
2023-04-23T22:26:16.220Z,9.26
2023-04-23T22:28:43.459Z,9.24
2023-04-23T22:31:10.463Z,9.16
2023-04-23T22:33:37.541Z,9.27
2023-04-23T22:36:05.302Z,9.31
2023-04-23T22:38:31.751Z,9.38
2023-04-23T22:40:58.321Z,9.30
2023-04-23T22:43:24.814Z,9.39
2023-04-23T22:45:51.322Z,9.28
2023-04-23T22:48:17.887Z,9.44
2023-04-23T22:50:44.372Z,9.53
2023-04-23T22:53:10.823Z,9.41
2023-04-23T22:55:37.285Z,9.48
2023-04-23T22:58:04.037Z,9.50
2023-04-23T23:00:31.111Z,9.60
2023-04-23T23:02:57.746Z,9.48
2023-04-23T23:05:24.291Z,9.47
2023-04-23T23:07:51.592Z,9.37
2023-04-23T23:10:21.517Z,9.37
2023-04-23T23:12:49.243Z,9.22
2023-04-23T23:15:15.804Z,9.16
2023-04-23T23:17:42.286Z,9.05
2023-04-23T23:20:09.244Z,9.15
2023-04-23T23:22:36.201Z,9.15
2023-04-23T23:25:03.081Z,9.05
2023-04-23T23:27:29.571Z,9.05
2023-04-23T23:29:57.844Z,8.99
2023-04-23T23:32:24.386Z,9.02
2023-04-23T23:34:51.484Z,9.17
2023-04-23T23:37:18.096Z,9.25
2023-04-23T23:39:44.709Z,9.28
2023-04-23T23:42:11.170Z,9.26
2023-04-23T23:44:37.683Z,9.22
2023-04-23T23:47:04.283Z,9.25
2023-04-23T23:49:31.157Z,9.27
2023-04-23T23:51:57.896Z,9.35
2023-04-23T23:54:24.428Z,9.37
2023-04-23T23:56:50.965Z,9.49
2023-04-23T23:59:17.460Z,9.47
